sensor_id;sensor_type;location;lat;lon;timestamp;temperature;humidity
23532;DHT22;11943;52.270;20.978;2023-08-20T00:00:28;21.50;99.90
23532;DHT22;11943;52.270;20.978;2023-08-20T00:02:59;21.40;99.90
23532;DHT22;11943;52.270;20.978;2023-08-20T00:05:28;21.40;99.90
23532;DHT22;11943;52.270;20.978;2023-08-20T00:07:54;21.30;99.90
23532;DHT22;11943;52.270;20.978;2023-08-20T00:10:20;21.30;99.90
23532;DHT22;11943;52.270;20.978;2023-08-20T00:12:45;21.30;99.90
23532;DHT22;11943;52.270;20.978;2023-08-20T00:15:11;21.30;99.90
23532;DHT22;11943;52.270;20.978;2023-08-20T00:17:39;21.40;99.90
23532;DHT22;11943;52.270;20.978;2023-08-20T00:20:05;21.30;99.90
23532;DHT22;11943;52.270;20.978;2023-08-20T00:22:36;21.30;99.90
23532;DHT22;11943;52.270;20.978;2023-08-20T00:25:02;21.30;99.90
23532;DHT22;11943;52.270;20.978;2023-08-20T00:27:29;21.20;99.90
23532;DHT22;11943;52.270;20.978;2023-08-20T00:29:55;21.20;99.90
23532;DHT22;11943;52.270;20.978;2023-08-20T00:32:21;21.20;99.90
23532;DHT22;11943;52.270;20.978;2023-08-20T00:34:46;21.20;99.90
23532;DHT22;11943;52.270;20.978;2023-08-20T00:37:12;21.10;99.90
23532;DHT22;11943;52.270;20.978;2023-08-20T00:39:38;21.10;99.90
23532;DHT22;11943;52.270;20.978;2023-08-20T00:42:04;21.10;99.90
23532;DHT22;11943;52.270;20.978;2023-08-20T00:44:30;21.10;99.90
23532;DHT22;11943;52.270;20.978;2023-08-20T00:46:56;21.10;99.90
23532;DHT22;11943;52.270;20.978;2023-08-20T00:49:22;21.10;99.90
23532;DHT22;11943;52.270;20.978;2023-08-20T00:51:49;21.10;99.90
23532;DHT22;11943;52.270;20.978;2023-08-20T00:54:15;21.10;99.90
23532;DHT22;11943;52.270;20.978;2023-08-20T00:56:41;21.10;99.90
23532;DHT22;11943;52.270;20.978;2023-08-20T00:59:07;21.00;99.90
23532;DHT22;11943;52.270;20.978;2023-08-20T01:01:33;20.90;99.90
23532;DHT22;11943;52.270;20.978;2023-08-20T01:03:59;20.90;99.90
23532;DHT22;11943;52.270;20.978;2023-08-20T01:09:09;20.90;99.90
23532;DHT22;11943;52.270;20.978;2023-08-20T01:11:47;20.90;99.90
23532;DHT22;11943;52.270;20.978;2023-08-20T01:14:16;20.90;99.90
23532;DHT22;11943;52.270;20.978;2023-08-20T01:16:42;20.90;99.90
23532;DHT22;11943;52.270;20.978;2023-08-20T01:19:11;20.90;99.90
23532;DHT22;11943;52.270;20.978;2023-08-20T01:22:00;20.90;99.90
23532;DHT22;11943;52.270;20.978;2023-08-20T01:30:24;20.80;99.90
23532;DHT22;11943;52.270;20.978;2023-08-20T01:32:50;20.80;99.90
23532;DHT22;11943;52.270;20.978;2023-08-20T01:35:17;20.80;99.90
23532;DHT22;11943;52.270;20.978;2023-08-20T01:37:43;20.80;99.90
23532;DHT22;11943;52.270;20.978;2023-08-20T01:40:09;20.80;99.90
23532;DHT22;11943;52.270;20.978;2023-08-20T01:42:39;20.80;99.90
23532;DHT22;11943;52.270;20.978;2023-08-20T01:45:06;20.80;99.90
23532;DHT22;11943;52.270;20.978;2023-08-20T01:47:33;20.80;99.90
23532;DHT22;11943;52.270;20.978;2023-08-20T01:49:59;20.80;99.90
23532;DHT22;11943;52.270;20.978;2023-08-20T01:52:25;20.80;99.90
23532;DHT22;11943;52.270;20.978;2023-08-20T01:54:50;20.80;99.90
23532;DHT22;11943;52.270;20.978;2023-08-20T01:57:16;20.80;99.90
23532;DHT22;11943;52.270;20.978;2023-08-20T01:59:42;20.80;99.90
23532;DHT22;11943;52.270;20.978;2023-08-20T02:02:08;20.70;99.90
23532;DHT22;11943;52.270;20.978;2023-08-20T02:04:34;20.70;99.90
23532;DHT22;11943;52.270;20.978;2023-08-20T02:06:59;20.70;99.90
23532;DHT22;11943;52.270;20.978;2023-08-20T02:09:25;20.70;99.90
23532;DHT22;11943;52.270;20.978;2023-08-20T02:11:51;20.70;99.90
23532;DHT22;11943;52.270;20.978;2023-08-20T02:14:17;20.70;99.90
23532;DHT22;11943;52.270;20.978;2023-08-20T02:16:43;20.70;99.90
23532;DHT22;11943;52.270;20.978;2023-08-20T02:19:09;20.70;99.90
23532;DHT22;11943;52.270;20.978;2023-08-20T02:21:36;20.70;99.90
23532;DHT22;11943;52.270;20.978;2023-08-20T02:24:01;20.70;99.90
23532;DHT22;11943;52.270;20.978;2023-08-20T02:26:27;20.70;99.90
23532;DHT22;11943;52.270;20.978;2023-08-20T02:28:53;20.70;99.90
23532;DHT22;11943;52.270;20.978;2023-08-20T02:31:18;20.60;99.90
23532;DHT22;11943;52.270;20.978;2023-08-20T02:33:44;20.60;99.90
23532;DHT22;11943;52.270;20.978;2023-08-20T02:36:09;20.60;99.90
23532;DHT22;11943;52.270;20.978;2023-08-20T02:38:35;20.60;99.90
23532;DHT22;11943;52.270;20.978;2023-08-20T02:41:02;20.60;99.90
23532;DHT22;11943;52.270;20.978;2023-08-20T02:43:30;20.60;99.90
23532;DHT22;11943;52.270;20.978;2023-08-20T02:45:56;20.60;99.90
23532;DHT22;11943;52.270;20.978;2023-08-20T02:48:21;20.60;99.90
23532;DHT22;11943;52.270;20.978;2023-08-20T02:50:55;20.60;99.90
23532;DHT22;11943;52.270;20.978;2023-08-20T02:53:21;20.60;99.90
23532;DHT22;11943;52.270;20.978;2023-08-20T02:55:48;20.60;99.90
23532;DHT22;11943;52.270;20.978;2023-08-20T02:58:14;20.50;99.90
23532;DHT22;11943;52.270;20.978;2023-08-20T03:00:40;20.60;99.90
23532;DHT22;11943;52.270;20.978;2023-08-20T03:03:06;20.50;99.90
23532;DHT22;11943;52.270;20.978;2023-08-20T03:05:33;20.50;99.90
23532;DHT22;11943;52.270;20.978;2023-08-20T03:07:59;20.50;99.90
23532;DHT22;11943;52.270;20.978;2023-08-20T03:10:29;20.50;99.90
23532;DHT22;11943;52.270;20.978;2023-08-20T03:12:55;20.50;99.90
23532;DHT22;11943;52.270;20.978;2023-08-20T03:15:21;20.40;99.90
23532;DHT22;11943;52.270;20.978;2023-08-20T03:17:46;20.40;99.90
23532;DHT22;11943;52.270;20.978;2023-08-20T03:20:12;20.40;99.90
23532;DHT22;11943;52.270;20.978;2023-08-20T03:22:38;20.50;99.90
23532;DHT22;11943;52.270;20.978;2023-08-20T03:25:05;20.50;99.90
23532;DHT22;11943;52.270;20.978;2023-08-20T03:27:30;20.50;99.90
23532;DHT22;11943;52.270;20.978;2023-08-20T03:29:56;20.40;99.90
23532;DHT22;11943;52.270;20.978;2023-08-20T03:32:22;20.40;99.90
23532;DHT22;11943;52.270;20.978;2023-08-20T03:34:48;20.50;99.90
23532;DHT22;11943;52.270;20.978;2023-08-20T03:37:14;20.50;99.90
23532;DHT22;11943;52.270;20.978;2023-08-20T03:39:39;20.50;99.90
23532;DHT22;11943;52.270;20.978;2023-08-20T03:42:05;20.50;99.90
23532;DHT22;11943;52.270;20.978;2023-08-20T03:44:31;20.50;99.90
23532;DHT22;11943;52.270;20.978;2023-08-20T03:46:57;20.50;99.90
23532;DHT22;11943;52.270;20.978;2023-08-20T03:49:23;20.50;99.90
23532;DHT22;11943;52.270;20.978;2023-08-20T03:51:48;20.50;99.90
23532;DHT22;11943;52.270;20.978;2023-08-20T03:54:14;20.50;99.90
23532;DHT22;11943;52.270;20.978;2023-08-20T03:56:39;20.50;99.90
23532;DHT22;11943;52.270;20.978;2023-08-20T03:59:05;20.60;99.90
23532;DHT22;11943;52.270;20.978;2023-08-20T04:01:31;20.60;99.90
23532;DHT22;11943;52.270;20.978;2023-08-20T04:03:57;20.60;99.90
23532;DHT22;11943;52.270;20.978;2023-08-20T04:06:22;20.60;99.90
23532;DHT22;11943;52.270;20.978;2023-08-20T04:08:48;20.60;99.90
23532;DHT22;11943;52.270;20.978;2023-08-20T04:11:14;20.70;99.90
23532;DHT22;11943;52.270;20.978;2023-08-20T04:13:40;20.70;99.90
23532;DHT22;11943;52.270;20.978;2023-08-20T04:16:08;20.80;99.90
23532;DHT22;11943;52.270;20.978;2023-08-20T04:18:34;20.80;99.90
23532;DHT22;11943;52.270;20.978;2023-08-20T04:20:59;20.80;99.90
23532;DHT22;11943;52.270;20.978;2023-08-20T04:23:25;20.90;99.90
23532;DHT22;11943;52.270;20.978;2023-08-20T04:25:51;20.90;99.90
23532;DHT22;11943;52.270;20.978;2023-08-20T04:28:16;21.00;99.90
23532;DHT22;11943;52.270;20.978;2023-08-20T04:30:42;21.10;99.90
23532;DHT22;11943;52.270;20.978;2023-08-20T04:33:09;21.20;99.90
23532;DHT22;11943;52.270;20.978;2023-08-20T04:35:35;21.20;99.90
23532;DHT22;11943;52.270;20.978;2023-08-20T04:38:01;21.30;99.90
23532;DHT22;11943;52.270;20.978;2023-08-20T04:40:27;21.30;99.90
23532;DHT22;11943;52.270;20.978;2023-08-20T04:42:53;21.40;99.90
23532;DHT22;11943;52.270;20.978;2023-08-20T04:45:19;21.40;99.90
23532;DHT22;11943;52.270;20.978;2023-08-20T04:47:45;21.50;99.90
23532;DHT22;11943;52.270;20.978;2023-08-20T04:50:12;21.60;99.90
23532;DHT22;11943;52.270;20.978;2023-08-20T04:52:38;21.70;99.90
23532;DHT22;11943;52.270;20.978;2023-08-20T04:55:04;21.80;99.90
23532;DHT22;11943;52.270;20.978;2023-08-20T04:57:31;21.90;99.90
23532;DHT22;11943;52.270;20.978;2023-08-20T04:59:57;22.00;99.90
23532;DHT22;11943;52.270;20.978;2023-08-20T05:02:23;22.00;99.90
23532;DHT22;11943;52.270;20.978;2023-08-20T05:04:49;22.10;99.90
23532;DHT22;11943;52.270;20.978;2023-08-20T05:07:14;22.20;99.90
23532;DHT22;11943;52.270;20.978;2023-08-20T05:09:40;22.30;99.90
23532;DHT22;11943;52.270;20.978;2023-08-20T05:12:06;22.30;99.90
23532;DHT22;11943;52.270;20.978;2023-08-20T05:14:31;22.40;99.90
23532;DHT22;11943;52.270;20.978;2023-08-20T05:16:57;22.50;99.90
23532;DHT22;11943;52.270;20.978;2023-08-20T05:19:23;22.60;99.90
23532;DHT22;11943;52.270;20.978;2023-08-20T05:21:48;22.70;99.90
23532;DHT22;11943;52.270;20.978;2023-08-20T05:24:14;22.90;99.90
23532;DHT22;11943;52.270;20.978;2023-08-20T05:26:40;23.00;99.90
23532;DHT22;11943;52.270;20.978;2023-08-20T05:29:05;23.10;99.90
23532;DHT22;11943;52.270;20.978;2023-08-20T05:31:31;23.20;99.90
23532;DHT22;11943;52.270;20.978;2023-08-20T05:33:57;23.40;99.90
23532;DHT22;11943;52.270;20.978;2023-08-20T05:36:23;23.80;99.90
23532;DHT22;11943;52.270;20.978;2023-08-20T05:38:49;24.20;99.90
23532;DHT22;11943;52.270;20.978;2023-08-20T05:41:15;24.70;99.90
23532;DHT22;11943;52.270;20.978;2023-08-20T05:43:41;25.30;99.90
23532;DHT22;11943;52.270;20.978;2023-08-20T05:46:06;25.60;99.90
23532;DHT22;11943;52.270;20.978;2023-08-20T05:48:32;26.10;99.90
23532;DHT22;11943;52.270;20.978;2023-08-20T05:50:58;26.50;99.90
23532;DHT22;11943;52.270;20.978;2023-08-20T05:53:23;26.90;99.90
23532;DHT22;11943;52.270;20.978;2023-08-20T05:55:49;27.50;99.90
23532;DHT22;11943;52.270;20.978;2023-08-20T05:58:15;27.90;99.90
23532;DHT22;11943;52.270;20.978;2023-08-20T06:00:41;28.20;99.90
23532;DHT22;11943;52.270;20.978;2023-08-20T06:03:07;28.40;99.90
23532;DHT22;11943;52.270;20.978;2023-08-20T06:05:36;28.60;99.90
23532;DHT22;11943;52.270;20.978;2023-08-20T06:08:02;28.40;99.90
23532;DHT22;11943;52.270;20.978;2023-08-20T06:10:27;28.60;99.90
23532;DHT22;11943;52.270;20.978;2023-08-20T06:12:53;28.50;99.90
23532;DHT22;11943;52.270;20.978;2023-08-20T06:15:19;28.30;99.90
23532;DHT22;11943;52.270;20.978;2023-08-20T06:17:44;28.10;99.90
23532;DHT22;11943;52.270;20.978;2023-08-20T06:20:11;28.10;99.90
23532;DHT22;11943;52.270;20.978;2023-08-20T06:22:40;28.00;99.90
23532;DHT22;11943;52.270;20.978;2023-08-20T06:25:06;27.80;99.90
23532;DHT22;11943;52.270;20.978;2023-08-20T06:27:31;27.70;99.90
23532;DHT22;11943;52.270;20.978;2023-08-20T06:29:57;27.60;99.90
23532;DHT22;11943;52.270;20.978;2023-08-20T06:32:23;27.30;99.90
23532;DHT22;11943;52.270;20.978;2023-08-20T06:34:49;27.20;99.90
23532;DHT22;11943;52.270;20.978;2023-08-20T06:37:15;27.20;99.90
23532;DHT22;11943;52.270;20.978;2023-08-20T06:39:40;27.30;99.90
23532;DHT22;11943;52.270;20.978;2023-08-20T06:42:06;27.20;99.90
23532;DHT22;11943;52.270;20.978;2023-08-20T06:44:32;27.30;99.90
23532;DHT22;11943;52.270;20.978;2023-08-20T06:46:57;27.20;99.90
23532;DHT22;11943;52.270;20.978;2023-08-20T06:49:23;27.20;99.90
23532;DHT22;11943;52.270;20.978;2023-08-20T06:51:48;27.30;99.90
23532;DHT22;11943;52.270;20.978;2023-08-20T06:54:15;27.30;99.90
23532;DHT22;11943;52.270;20.978;2023-08-20T06:56:41;27.10;99.90
23532;DHT22;11943;52.270;20.978;2023-08-20T06:59:07;27.20;99.90
23532;DHT22;11943;52.270;20.978;2023-08-20T07:01:33;27.30;99.90
23532;DHT22;11943;52.270;20.978;2023-08-20T07:03:58;27.30;99.90
23532;DHT22;11943;52.270;20.978;2023-08-20T07:06:24;27.50;99.90
23532;DHT22;11943;52.270;20.978;2023-08-20T07:08:51;27.80;99.90
23532;DHT22;11943;52.270;20.978;2023-08-20T07:11:16;27.80;99.90
23532;DHT22;11943;52.270;20.978;2023-08-20T07:13:42;28.00;99.90
23532;DHT22;11943;52.270;20.978;2023-08-20T07:16:08;28.00;99.90
23532;DHT22;11943;52.270;20.978;2023-08-20T07:18:34;27.90;99.90
23532;DHT22;11943;52.270;20.978;2023-08-20T07:21:00;28.00;99.90
23532;DHT22;11943;52.270;20.978;2023-08-20T07:23:25;28.20;99.90
23532;DHT22;11943;52.270;20.978;2023-08-20T07:25:51;28.40;99.90
23532;DHT22;11943;52.270;20.978;2023-08-20T07:28:19;28.50;99.90
23532;DHT22;11943;52.270;20.978;2023-08-20T07:31:05;28.80;99.90
23532;DHT22;11943;52.270;20.978;2023-08-20T07:33:30;28.70;99.90
23532;DHT22;11943;52.270;20.978;2023-08-20T07:35:56;28.60;99.90
23532;DHT22;11943;52.270;20.978;2023-08-20T07:38:21;28.60;99.90
23532;DHT22;11943;52.270;20.978;2023-08-20T07:40:47;28.80;99.90
23532;DHT22;11943;52.270;20.978;2023-08-20T07:43:14;29.00;99.60
23532;DHT22;11943;52.270;20.978;2023-08-20T07:45:39;29.00;98.50
23532;DHT22;11943;52.270;20.978;2023-08-20T07:48:05;28.80;98.20
23532;DHT22;11943;52.270;20.978;2023-08-20T07:50:31;28.80;99.20
23532;DHT22;11943;52.270;20.978;2023-08-20T07:52:56;28.80;98.70
23532;DHT22;11943;52.270;20.978;2023-08-20T07:55:22;29.00;98.40
23532;DHT22;11943;52.270;20.978;2023-08-20T07:57:47;29.20;96.60
23532;DHT22;11943;52.270;20.978;2023-08-20T08:00:15;29.10;96.40
23532;DHT22;11943;52.270;20.978;2023-08-20T08:02:40;29.10;96.20
23532;DHT22;11943;52.270;20.978;2023-08-20T08:05:06;29.20;97.30
23532;DHT22;11943;52.270;20.978;2023-08-20T08:07:32;29.50;95.30
23532;DHT22;11943;52.270;20.978;2023-08-20T08:09:58;29.30;95.00
23532;DHT22;11943;52.270;20.978;2023-08-20T08:12:23;29.40;96.00
23532;DHT22;11943;52.270;20.978;2023-08-20T08:14:49;29.50;94.60
23532;DHT22;11943;52.270;20.978;2023-08-20T08:17:14;29.60;94.80
23532;DHT22;11943;52.270;20.978;2023-08-20T08:19:40;29.70;95.50
23532;DHT22;11943;52.270;20.978;2023-08-20T08:22:06;29.80;94.20
23532;DHT22;11943;52.270;20.978;2023-08-20T08:24:31;30.00;93.40
23532;DHT22;11943;52.270;20.978;2023-08-20T08:26:57;30.00;93.30
23532;DHT22;11943;52.270;20.978;2023-08-20T08:29:23;30.20;92.80
23532;DHT22;11943;52.270;20.978;2023-08-20T08:31:48;30.10;93.50
23532;DHT22;11943;52.270;20.978;2023-08-20T08:34:14;30.10;92.00
23532;DHT22;11943;52.270;20.978;2023-08-20T08:36:40;30.30;91.10
23532;DHT22;11943;52.270;20.978;2023-08-20T08:39:05;30.20;89.40
23532;DHT22;11943;52.270;20.978;2023-08-20T08:41:35;30.20;86.70
23532;DHT22;11943;52.270;20.978;2023-08-20T08:44:01;30.40;88.10
23532;DHT22;11943;52.270;20.978;2023-08-20T08:46:27;30.40;87.80
23532;DHT22;11943;52.270;20.978;2023-08-20T08:48:53;30.40;84.80
23532;DHT22;11943;52.270;20.978;2023-08-20T08:51:18;30.30;84.70
23532;DHT22;11943;52.270;20.978;2023-08-20T08:53:44;30.50;85.40
23532;DHT22;11943;52.270;20.978;2023-08-20T08:56:11;30.60;84.50
23532;DHT22;11943;52.270;20.978;2023-08-20T08:58:37;30.70;85.40
23532;DHT22;11943;52.270;20.978;2023-08-20T09:01:02;30.80;85.90
23532;DHT22;11943;52.270;20.978;2023-08-20T09:03:28;30.90;82.70
23532;DHT22;11943;52.270;20.978;2023-08-20T09:06:08;31.10;81.80
23532;DHT22;11943;52.270;20.978;2023-08-20T09:08:34;30.90;81.10
23532;DHT22;11943;52.270;20.978;2023-08-20T09:11:01;30.80;81.80
23532;DHT22;11943;52.270;20.978;2023-08-20T09:13:38;30.70;80.60
23532;DHT22;11943;52.270;20.978;2023-08-20T09:16:05;30.70;77.90
23532;DHT22;11943;52.270;20.978;2023-08-20T09:18:32;30.80;78.70
23532;DHT22;11943;52.270;20.978;2023-08-20T09:20:58;30.80;78.40
23532;DHT22;11943;52.270;20.978;2023-08-20T09:23:28;30.60;80.40
23532;DHT22;11943;52.270;20.978;2023-08-20T09:25:55;30.70;78.60
23532;DHT22;11943;52.270;20.978;2023-08-20T09:28:20;30.60;77.20
23532;DHT22;11943;52.270;20.978;2023-08-20T09:31:00;30.70;80.00
23532;DHT22;11943;52.270;20.978;2023-08-20T09:33:27;30.60;78.50
23532;DHT22;11943;52.270;20.978;2023-08-20T09:35:53;30.60;79.60
23532;DHT22;11943;52.270;20.978;2023-08-20T09:38:21;30.80;78.70
23532;DHT22;11943;52.270;20.978;2023-08-20T09:40:56;31.10;76.70
23532;DHT22;11943;52.270;20.978;2023-08-20T09:43:24;31.20;77.40
23532;DHT22;11943;52.270;20.978;2023-08-20T09:45:55;31.30;73.60
23532;DHT22;11943;52.270;20.978;2023-08-20T09:48:21;31.10;74.10
23532;DHT22;11943;52.270;20.978;2023-08-20T09:50:51;31.20;73.70
23532;DHT22;11943;52.270;20.978;2023-08-20T09:53:26;31.10;75.60
23532;DHT22;11943;52.270;20.978;2023-08-20T09:55:52;31.20;75.60
23532;DHT22;11943;52.270;20.978;2023-08-20T09:58:21;31.40;73.80
23532;DHT22;11943;52.270;20.978;2023-08-20T10:00:51;31.50;70.90
23532;DHT22;11943;52.270;20.978;2023-08-20T10:03:18;31.50;70.70
23532;DHT22;11943;52.270;20.978;2023-08-20T10:05:47;31.70;70.60
23532;DHT22;11943;52.270;20.978;2023-08-20T10:08:14;31.90;69.30
23532;DHT22;11943;52.270;20.978;2023-08-20T10:10:40;32.00;68.20
23532;DHT22;11943;52.270;20.978;2023-08-20T10:13:06;31.80;68.80
23532;DHT22;11943;52.270;20.978;2023-08-20T10:15:32;31.70;69.60
23532;DHT22;11943;52.270;20.978;2023-08-20T10:18:01;31.30;70.50
23532;DHT22;11943;52.270;20.978;2023-08-20T10:20:29;31.20;70.50
23532;DHT22;11943;52.270;20.978;2023-08-20T10:23:00;31.30;70.90
23532;DHT22;11943;52.270;20.978;2023-08-20T10:25:26;31.50;70.70
23532;DHT22;11943;52.270;20.978;2023-08-20T10:27:53;31.70;70.20
23532;DHT22;11943;52.270;20.978;2023-08-20T10:30:24;31.70;68.10
23532;DHT22;11943;52.270;20.978;2023-08-20T10:32:57;31.70;69.30
23532;DHT22;11943;52.270;20.978;2023-08-20T10:35:48;31.70;66.40
23532;DHT22;11943;52.270;20.978;2023-08-20T10:38:16;31.60;68.80
23532;DHT22;11943;52.270;20.978;2023-08-20T10:43:38;31.80;67.50
23532;DHT22;11943;52.270;20.978;2023-08-20T10:46:16;31.50;68.20
23532;DHT22;11943;52.270;20.978;2023-08-20T10:48:43;31.00;69.00
23532;DHT22;11943;52.270;20.978;2023-08-20T10:51:19;30.70;69.10
23532;DHT22;11943;52.270;20.978;2023-08-20T10:54:06;30.90;71.00
23532;DHT22;11943;52.270;20.978;2023-08-20T10:56:48;31.40;70.00
23532;DHT22;11943;52.270;20.978;2023-08-20T10:59:22;31.80;67.90
23532;DHT22;11943;52.270;20.978;2023-08-20T11:01:56;31.60;66.10
23532;DHT22;11943;52.270;20.978;2023-08-20T11:04:29;31.30;67.00
23532;DHT22;11943;52.270;20.978;2023-08-20T11:06:58;31.20;67.40
23532;DHT22;11943;52.270;20.978;2023-08-20T11:09:25;31.20;69.30
23532;DHT22;11943;52.270;20.978;2023-08-20T11:11:51;31.20;67.90
23532;DHT22;11943;52.270;20.978;2023-08-20T11:14:18;31.50;66.30
23532;DHT22;11943;52.270;20.978;2023-08-20T11:16:45;31.70;60.90
23532;DHT22;11943;52.270;20.978;2023-08-20T11:19:11;31.60;61.80
23532;DHT22;11943;52.270;20.978;2023-08-20T11:21:38;31.70;63.50
23532;DHT22;11943;52.270;20.978;2023-08-20T11:24:05;31.50;63.60
23532;DHT22;11943;52.270;20.978;2023-08-20T11:26:32;31.60;64.30
23532;DHT22;11943;52.270;20.978;2023-08-20T11:28:57;31.50;64.90
23532;DHT22;11943;52.270;20.978;2023-08-20T11:31:23;31.40;63.40
23532;DHT22;11943;52.270;20.978;2023-08-20T11:33:52;31.60;63.70
23532;DHT22;11943;52.270;20.978;2023-08-20T11:36:19;31.70;64.20
23532;DHT22;11943;52.270;20.978;2023-08-20T11:38:49;31.90;63.20
23532;DHT22;11943;52.270;20.978;2023-08-20T11:41:15;32.00;62.60
23532;DHT22;11943;52.270;20.978;2023-08-20T11:43:41;32.40;62.60
23532;DHT22;11943;52.270;20.978;2023-08-20T11:46:13;32.70;62.70
23532;DHT22;11943;52.270;20.978;2023-08-20T11:51:23;32.60;62.00
23532;DHT22;11943;52.270;20.978;2023-08-20T11:53:49;32.50;63.00
23532;DHT22;11943;52.270;20.978;2023-08-20T11:56:15;32.70;61.80
23532;DHT22;11943;52.270;20.978;2023-08-20T11:58:40;33.00;61.10
23532;DHT22;11943;52.270;20.978;2023-08-20T12:01:08;33.20;61.20
23532;DHT22;11943;52.270;20.978;2023-08-20T12:03:36;32.80;60.00
23532;DHT22;11943;52.270;20.978;2023-08-20T12:06:20;33.00;61.10
23532;DHT22;11943;52.270;20.978;2023-08-20T12:08:46;32.70;61.50
23532;DHT22;11943;52.270;20.978;2023-08-20T12:11:12;32.40;61.90
23532;DHT22;11943;52.270;20.978;2023-08-20T12:13:38;32.10;63.50
23532;DHT22;11943;52.270;20.978;2023-08-20T12:16:04;31.90;63.60
23532;DHT22;11943;52.270;20.978;2023-08-20T12:18:30;31.60;64.50
23532;DHT22;11943;52.270;20.978;2023-08-20T12:20:55;31.60;64.90
23532;DHT22;11943;52.270;20.978;2023-08-20T12:23:21;31.80;65.30
23532;DHT22;11943;52.270;20.978;2023-08-20T12:25:51;31.50;65.00
23532;DHT22;11943;52.270;20.978;2023-08-20T12:28:17;31.30;65.80
23532;DHT22;11943;52.270;20.978;2023-08-20T12:30:43;31.20;66.50
23532;DHT22;11943;52.270;20.978;2023-08-20T12:33:09;31.40;66.80
23532;DHT22;11943;52.270;20.978;2023-08-20T12:35:36;31.60;64.50
23532;DHT22;11943;52.270;20.978;2023-08-20T12:38:02;31.80;64.60
23532;DHT22;11943;52.270;20.978;2023-08-20T12:40:28;32.10;63.60
23532;DHT22;11943;52.270;20.978;2023-08-20T12:42:54;32.20;62.20
23532;DHT22;11943;52.270;20.978;2023-08-20T12:45:20;32.40;62.10
23532;DHT22;11943;52.270;20.978;2023-08-20T12:47:46;32.50;61.00
23532;DHT22;11943;52.270;20.978;2023-08-20T12:50:11;32.30;61.10
23532;DHT22;11943;52.270;20.978;2023-08-20T12:52:38;32.00;62.10
23532;DHT22;11943;52.270;20.978;2023-08-20T12:55:04;31.80;64.50
23532;DHT22;11943;52.270;20.978;2023-08-20T12:57:30;31.60;63.90
23532;DHT22;11943;52.270;20.978;2023-08-20T12:59:56;31.70;63.90
23532;DHT22;11943;52.270;20.978;2023-08-20T13:02:22;31.90;63.20
23532;DHT22;11943;52.270;20.978;2023-08-20T13:04:48;31.80;63.20
23532;DHT22;11943;52.270;20.978;2023-08-20T13:07:14;31.80;64.10
23532;DHT22;11943;52.270;20.978;2023-08-20T13:09:40;31.70;63.10
23532;DHT22;11943;52.270;20.978;2023-08-20T13:12:06;31.90;63.80
23532;DHT22;11943;52.270;20.978;2023-08-20T13:14:35;32.10;62.90
23532;DHT22;11943;52.270;20.978;2023-08-20T13:17:01;32.30;61.40
23532;DHT22;11943;52.270;20.978;2023-08-20T13:19:27;32.50;60.80
23532;DHT22;11943;52.270;20.978;2023-08-20T13:21:53;32.60;61.30
23532;DHT22;11943;52.270;20.978;2023-08-20T13:24:20;32.50;61.80
23532;DHT22;11943;52.270;20.978;2023-08-20T13:26:46;32.70;58.90
23532;DHT22;11943;52.270;20.978;2023-08-20T13:29:11;32.40;58.60
23532;DHT22;11943;52.270;20.978;2023-08-20T13:31:37;32.10;60.20
23532;DHT22;11943;52.270;20.978;2023-08-20T13:34:03;31.90;60.50
23532;DHT22;11943;52.270;20.978;2023-08-20T13:36:29;31.90;61.00
23532;DHT22;11943;52.270;20.978;2023-08-20T13:38:55;32.00;59.30
23532;DHT22;11943;52.270;20.978;2023-08-20T13:41:21;32.00;60.00
23532;DHT22;11943;52.270;20.978;2023-08-20T13:43:47;31.80;61.20
23532;DHT22;11943;52.270;20.978;2023-08-20T13:46:12;31.80;62.10
23532;DHT22;11943;52.270;20.978;2023-08-20T13:48:38;31.90;62.00
23532;DHT22;11943;52.270;20.978;2023-08-20T13:51:03;32.00;63.10
23532;DHT22;11943;52.270;20.978;2023-08-20T13:53:29;32.30;62.50
23532;DHT22;11943;52.270;20.978;2023-08-20T13:55:55;32.50;62.10
23532;DHT22;11943;52.270;20.978;2023-08-20T13:58:21;32.40;61.30
23532;DHT22;11943;52.270;20.978;2023-08-20T14:00:46;32.50;59.50
23532;DHT22;11943;52.270;20.978;2023-08-20T14:03:12;32.40;61.20
23532;DHT22;11943;52.270;20.978;2023-08-20T14:05:38;32.20;59.80
23532;DHT22;11943;52.270;20.978;2023-08-20T14:08:04;32.00;59.10
23532;DHT22;11943;52.270;20.978;2023-08-20T14:10:29;32.00;60.10
23532;DHT22;11943;52.270;20.978;2023-08-20T14:12:55;31.80;61.30
23532;DHT22;11943;52.270;20.978;2023-08-20T14:15:20;31.70;61.60
23532;DHT22;11943;52.270;20.978;2023-08-20T14:17:46;31.90;60.90
23532;DHT22;11943;52.270;20.978;2023-08-20T14:20:12;31.80;60.90
23532;DHT22;11943;52.270;20.978;2023-08-20T14:22:39;31.90;60.50
23532;DHT22;11943;52.270;20.978;2023-08-20T14:25:05;32.00;60.40
23532;DHT22;11943;52.270;20.978;2023-08-20T14:27:31;32.10;61.40
23532;DHT22;11943;52.270;20.978;2023-08-20T14:29:56;32.10;61.40
23532;DHT22;11943;52.270;20.978;2023-08-20T14:32:22;32.00;61.20
23532;DHT22;11943;52.270;20.978;2023-08-20T14:34:47;31.60;62.30
23532;DHT22;11943;52.270;20.978;2023-08-20T14:37:13;31.40;61.30
23532;DHT22;11943;52.270;20.978;2023-08-20T14:39:39;31.10;61.70
23532;DHT22;11943;52.270;20.978;2023-08-20T14:42:05;30.90;63.00
23532;DHT22;11943;52.270;20.978;2023-08-20T14:44:31;30.70;62.40
23532;DHT22;11943;52.270;20.978;2023-08-20T14:46:56;30.80;63.00
23532;DHT22;11943;52.270;20.978;2023-08-20T14:49:22;31.00;63.20
23532;DHT22;11943;52.270;20.978;2023-08-20T14:51:49;31.20;62.10
23532;DHT22;11943;52.270;20.978;2023-08-20T14:54:14;31.40;62.00
23532;DHT22;11943;52.270;20.978;2023-08-20T14:56:40;31.40;62.40
23532;DHT22;11943;52.270;20.978;2023-08-20T14:59:05;31.50;61.90
23532;DHT22;11943;52.270;20.978;2023-08-20T15:01:31;31.40;62.40
23532;DHT22;11943;52.270;20.978;2023-08-20T15:03:56;31.30;64.10
23532;DHT22;11943;52.270;20.978;2023-08-20T15:06:22;31.30;63.90
23532;DHT22;11943;52.270;20.978;2023-08-20T15:08:50;31.40;63.50
23532;DHT22;11943;52.270;20.978;2023-08-20T15:11:15;31.30;64.10
23532;DHT22;11943;52.270;20.978;2023-08-20T15:13:41;31.30;64.10
23532;DHT22;11943;52.270;20.978;2023-08-20T15:16:07;31.00;64.10
23532;DHT22;11943;52.270;20.978;2023-08-20T15:18:33;30.90;64.80
23532;DHT22;11943;52.270;20.978;2023-08-20T15:20:59;31.00;64.90
23532;DHT22;11943;52.270;20.978;2023-08-20T15:23:26;31.10;64.40
23532;DHT22;11943;52.270;20.978;2023-08-20T15:25:53;31.10;65.10